Time;durP1;ratioP1;P1;durP2;ratioP2;P2;SDS_P1;SDS_P2;PMS_P1;PMS_P2;Temp;Humidity;BMP_temperature;BMP_pressure;BME280_temperature;BME280_humidity;BME280_pressure;Samples;Min_cycle;Max_cycle;Signal;HPM_P1;HPM_P2
2021/06/21 00:00:51;;;;;;;4.13;1.45;;;;;;;21.84;58.08;99277.14;129709;1092;113554;-62
2021/06/21 00:03:20;;;;;;;8.20;1.30;;;;;;;21.80;57.93;99277.00;129714;1093;22584;-59
2021/06/21 00:05:48;;;;;;;2.60;1.53;;;;;;;21.78;58.12;99276.55;129768;1092;22566;-61
2021/06/21 00:08:17;;;;;;;1.80;1.10;;;;;;;21.77;58.19;99285.20;129630;1093;113445;-62
2021/06/21 00:10:53;;;;;;;3.40;1.53;;;;;;;21.75;58.42;99285.54;129780;1093;22559;-59
2021/06/21 00:13:21;;;;;;;1.30;1.13;;;;;;;21.73;58.02;99276.73;129637;1093;113496;-59
2021/06/21 00:16:09;;;;;;;4.98;1.53;;;;;;;21.73;58.00;99281.47;129816;1093;22522;-59
2021/06/21 00:18:48;;;;;;;6.03;1.55;;;;;;;21.73;58.26;99275.92;129579;1093;113818;-60
2021/06/21 00:21:36;;;;;;;4.28;1.30;;;;;;;21.72;58.22;99275.11;129756;1093;22572;-61
2021/06/21 00:24:07;;;;;;;2.07;1.23;;;;;;;21.70;58.09;99288.50;129721;1093;22662;-59
2021/06/21 00:26:49;;;;;;;1.58;1.38;;;;;;;21.70;58.14;99282.14;129671;1096;113891;-60
2021/06/21 00:29:17;;;;;;;3.23;1.43;;;;;;;21.66;58.15;99275.64;129714;1091;22581;-59
2021/06/21 00:31:47;;;;;;;2.88;1.63;;;;;;;21.64;58.50;99284.29;129618;1095;113615;-59
2021/06/21 00:34:15;;;;;;;4.13;1.70;;;;;;;21.63;58.37;99281.88;129777;1095;22557;-60
2021/06/21 00:36:44;;;;;;;3.50;1.40;;;;;;;21.60;58.47;99283.36;129658;1092;113797;-59
2021/06/21 00:39:13;;;;;;;2.95;1.20;;;;;;;21.57;58.48;99286.80;129730;1091;23456;-60
2021/06/21 00:41:41;;;;;;;1.85;1.20;;;;;;;21.56;58.54;99292.67;129781;1093;23753;-59
2021/06/21 00:44:09;;;;;;;3.73;1.30;;;;;;;21.52;58.62;99281.44;129571;1093;113591;-60
2021/06/21 00:46:38;;;;;;;2.10;1.08;;;;;;;21.48;58.81;99275.78;129789;1092;22548;-60
2021/06/21 00:49:06;;;;;;;8.35;1.40;;;;;;;21.46;58.89;99278.07;129647;1092;114639;-60
2021/06/21 00:51:35;;;;;;;4.13;1.40;;;;;;;21.43;58.95;99278.73;129808;1093;23003;-60
2021/06/21 00:54:04;;;;;;;2.50;1.30;;;;;;;21.41;59.17;99275.48;129708;1093;22582;-60
2021/06/21 00:56:32;;;;;;;3.70;1.50;;;;;;;21.37;59.09;99273.70;129612;1093;113709;-60
2021/06/21 00:59:01;;;;;;;1.73;1.30;;;;;;;21.34;59.28;99275.22;129714;1093;22557;-60
2021/06/21 01:01:30;;;;;;;3.15;1.40;;;;;;;21.31;59.54;99273.11;129646;1093;113687;-60
2021/06/21 01:03:59;;;;;;;2.55;1.40;;;;;;;21.28;59.39;99276.55;129727;1093;22553;-59
2021/06/21 01:06:29;;;;;;;3.63;1.30;;;;;;;21.25;59.56;99268.89;129694;1093;22571;-67
2021/06/21 01:08:58;;;;;;;3.05;1.45;;;;;;;21.23;59.54;99268.41;129697;1092;113990;-67
2021/06/21 01:12:02;;;;;;;4.80;1.20;;;;;;;21.21;59.78;99256.84;129679;1093;22589;-66
2021/06/21 01:14:43;;;;;;;3.83;1.15;;;;;;;21.18;59.68;99263.05;129639;1093;113791;-67
2021/06/21 01:17:14;;;;;;;1.73;1.30;;;;;;;21.17;59.58;99258.66;129768;1093;23710;-67
2021/06/21 01:20:01;;;;;;;5.70;1.50;;;;;;;21.16;59.71;99259.80;129676;1092;114124;-67
2021/06/21 01:23:03;;;;;;;1.43;1.20;;;;;;;21.14;59.85;99262.90;129753;1093;22890;-67
2021/06/21 01:25:46;;;;;;;3.10;1.95;;;;;;;21.15;59.76;99274.80;129623;1093;113612;-67
2021/06/21 01:28:57;;;;;;;5.28;1.43;;;;;;;21.12;59.70;99265.19;129816;1093;22589;-67
2021/06/21 01:31:37;;;;;;;3.10;1.25;;;;;;;21.11;59.82;99258.02;129223;1096;114043;-66
2021/06/21 01:34:06;;;;;;;3.38;1.28;;;;;;;21.10;59.80;99261.13;129286;1096;22579;-66
2021/06/21 01:36:34;;;;;;;2.23;1.30;;;;;;;21.09;59.77;99262.27;126604;1095;22924;-67
2021/06/21 01:39:03;;;;;;;5.53;1.45;;;;;;;21.08;59.95;99255.91;124641;1096;113694;-67
2021/06/21 01:41:33;;;;;;;3.20;1.25;;;;;;;21.07;59.82;99251.52;124760;1095;22792;-67
2021/06/21 01:44:02;;;;;;;3.00;1.23;;;;;;;21.05;59.76;99253.83;124751;1095;113531;-67
2021/06/21 01:46:32;;;;;;;2.60;1.45;;;;;;;21.01;59.82;99250.09;129225;1095;23122;-68
2021/06/21 01:49:13;;;;;;;3.80;1.73;;;;;;;20.99;59.88;99248.80;129212;1095;113946;-67
2021/06/21 01:51:42;;;;;;;7.45;1.43;;;;;;;20.95;60.09;99251.42;129262;1096;23411;-68
2021/06/21 01:54:10;;;;;;;1.63;1.30;;;;;;;20.94;60.11;99248.98;129306;1096;22567;-67
2021/06/21 01:56:44;;;;;;;1.30;1.20;;;;;;;20.92;60.02;99245.75;129141;1096;113674;-67
2021/06/21 01:59:14;;;;;;;3.53;1.30;;;;;;;20.90;59.84;99248.86;129313;1096;23167;-68
2021/06/21 02:01:43;;;;;;;4.10;1.60;;;;;;;20.89;59.93;99240.88;129202;1096;113713;-68
2021/06/21 02:04:14;;;;;;;5.15;1.70;;;;;;;20.89;59.98;99240.88;129325;1096;22655;-67
2021/06/21 02:06:43;;;;;;;2.70;1.15;;;;;;;20.87;60.00;99240.39;129180;1096;113940;-66
2021/06/21 02:09:12;;;;;;;3.70;1.30;;;;;;;20.87;60.17;99251.47;129545;1093;23136;-67
2021/06/21 02:11:40;;;;;;;4.08;1.30;;;;;;;20.87;60.32;99248.70;129761;1093;23377;-67
2021/06/21 02:14:09;;;;;;;2.65;1.60;;;;;;;20.87;60.32;99251.47;129581;1093;113786;-67
2021/06/21 02:16:38;;;;;;;3.03;1.38;;;;;;;20.87;60.18;99246.74;129794;1093;22594;-68
2021/06/21 02:19:07;;;;;;;2.58;1.30;;;;;;;20.88;60.21;99239.25;129567;1093;114107;-68
2021/06/21 02:21:35;;;;;;;7.10;1.53;;;;;;;20.90;60.33;99245.27;129786;1093;22632;-67
2021/06/21 02:24:04;;;;;;;4.45;1.50;;;;;;;20.90;60.28;99240.55;129745;1093;22577;-68
2021/06/21 02:26:32;;;;;;;2.57;1.40;;;;;;;20.90;60.16;99242.50;129724;1092;113675;-67
2021/06/21 02:29:01;;;;;;;6.73;1.57;;;;;;;20.89;60.22;99241.69;129743;1093;23360;-68
2021/06/21 02:31:30;;;;;;;5.28;1.45;;;;;;;20.89;60.20;99243.64;129649;1093;113695;-67
2021/06/21 02:33:58;;;;;;;5.20;1.75;;;;;;;20.89;60.24;99251.95;129738;1093;23511;-67
2021/06/21 02:36:27;;;;;;;3.58;1.70;;;;;;;20.90;60.44;99248.04;127351;1093;25897;-67
2021/06/21 02:38:57;;;;;;;1.33;1.20;;;;;;;20.90;60.42;99248.04;129565;1092;113514;-68
2021/06/21 02:41:26;;;;;;;2.68;1.45;;;;;;;20.89;60.36;99241.69;129799;1093;22579;-68
2021/06/21 02:43:55;;;;;;;3.03;1.33;;;;;;;20.89;60.47;99241.69;129600;1093;113783;-67
2021/06/21 02:46:23;;;;;;;4.30;1.68;;;;;;;20.89;60.35;99240.88;129784;1092;22638;-68
2021/06/21 02:48:52;;;;;;;4.93;1.40;;;;;;;20.89;60.49;99238.11;129649;1093;113765;-68
2021/06/21 02:51:43;;;;;;;1.65;1.50;;;;;;;20.88;60.62;99245.60;129776;1092;22572;-68
2021/06/21 02:54:16;;;;;;;6.63;1.63;;;;;;;20.90;60.35;99248.04;129739;1093;22642;-68
2021/06/21 02:56:49;;;;;;;3.43;1.78;;;;;;;20.90;60.25;99242.50;129650;1093;113745;-67
2021/06/21 02:59:19;;;;;;;8.08;1.85;;;;;;;20.90;60.54;99248.04;129737;1093;22663;-68
2021/06/21 03:01:50;;;;;;;2.85;1.30;;;;;;;20.92;60.60;99241.00;129662;1093;113767;-68
2021/06/21 03:04:20;;;;;;;4.18;1.70;;;;;;;20.93;60.43;99248.16;129867;1092;22658;-68
2021/06/21 03:06:50;;;;;;;3.08;2.00;;;;;;;20.96;60.21;99241.97;129953;1092;114269;-67
2021/06/21 03:09:19;;;;;;;4.68;1.63;;;;;;;20.98;60.29;99247.17;130028;1093;22511;-67
2021/06/21 03:11:52;;;;;;;5.68;1.75;;;;;;;21.01;60.23;99246.52;130108;1093;22659;-67
2021/06/21 03:14:24;;;;;;;10.10;1.70;;;;;;;21.04;60.41;99254.98;129925;1093;114361;-68
2021/06/21 03:16:53;;;;;;;6.13;1.80;;;;;;;21.07;60.32;99239.62;126700;1093;22957;-67
2021/06/21 03:19:22;;;;;;;2.60;1.33;;;;;;;21.11;60.19;99246.13;129967;1093;113789;-68
2021/06/21 03:21:50;;;;;;;4.35;1.28;;;;;;;21.13;60.14;99243.84;130031;1091;22581;-68
2021/06/21 03:24:24;;;;;;;5.65;2.23;;;;;;;21.16;60.14;99240.41;130059;1092;23397;-67
2021/06/21 03:26:53;;;;;;;4.35;1.78;;;;;;;21.20;60.05;99248.90;129949;1092;114147;-68
2021/06/21 03:29:22;;;;;;;4.95;1.60;;;;;;;21.24;60.04;99253.41;130080;1093;23425;-68
2021/06/21 03:31:52;;;;;;;3.03;1.63;;;;;;;21.27;60.23;99252.75;129927;1093;113650;-68
2021/06/21 03:34:22;;;;;;;4.83;1.88;;;;;;;21.32;59.79;99254.52;130107;1093;22700;-67
2021/06/21 03:36:51;;;;;;;5.15;1.70;;;;;;;21.38;60.37;99255.94;129986;1093;114068;-68
2021/06/21 03:39:19;;;;;;;5.05;1.70;;;;;;;21.42;59.97;99254.94;130082;1092;22531;-68
2021/06/21 03:41:48;;;;;;;1.93;1.38;;;;;;;21.47;59.79;99256.70;130012;1093;22591;-67
2021/06/21 03:44:16;;;;;;;3.35;1.73;;;;;;;21.49;59.76;99246.91;129969;1091;114480;-67
2021/06/21 03:46:45;;;;;;;5.40;1.63;;;;;;;21.57;59.81;99255.48;130057;1093;22594;-68
2021/06/21 03:49:13;;;;;;;6.78;1.80;;;;;;;21.62;60.02;99249.75;129972;1093;113157;-68
2021/06/21 03:51:42;;;;;;;4.43;1.68;;;;;;;21.66;59.81;99243.17;130090;1092;23036;-68
2021/06/21 03:54:10;;;;;;;1.88;1.48;;;;;;;21.73;59.58;99239.88;130092;1093;22569;-68
2021/06/21 03:56:39;;;;;;;4.45;1.60;;;;;;;21.77;59.03;99243.60;129945;1093;113640;-68
2021/06/21 03:59:07;;;;;;;5.17;2.07;;;;;;;21.81;58.77;99236.20;130106;1093;22529;-68
2021/06/21 04:01:36;;;;;;;2.38;1.40;;;;;;;21.84;58.98;99232.76;129863;1093;113615;-68
2021/06/21 04:04:05;;;;;;;7.40;1.65;;;;;;;21.87;58.30;99238.45;130112;1093;22588;-67
2021/06/21 04:06:34;;;;;;;6.13;1.93;;;;;;;21.91;58.38;99233.04;130024;1092;22639;-68
2021/06/21 04:09:04;;;;;;;3.60;1.95;;;;;;;21.95;58.13;99241.47;129985;1093;113483;-68
2021/06/21 04:11:33;;;;;;;3.93;1.75;;;;;;;21.99;57.96;99239.64;130064;1092;22674;-67
2021/06/21 04:14:01;;;;;;;2.95;1.60;;;;;;;22.03;57.88;99241.44;130007;1093;114120;-68
2021/06/21 04:16:29;;;;;;;3.70;1.78;;;;;;;22.07;57.59;99242.39;130108;1093;22581;-63
2021/06/21 04:18:58;;;;;;;3.88;1.78;;;;;;;22.11;57.89;99237.75;129968;1093;113850;-63
2021/06/21 04:21:26;;;;;;;3.08;1.85;;;;;;;22.15;58.09;99244.25;130110;1093;22750;-63
2021/06/21 04:23:55;;;;;;;8.60;2.35;;;;;;;22.20;57.87;99243.23;130021;1092;23114;-63
2021/06/21 04:26:24;;;;;;;6.25;2.00;;;;;;;22.25;57.97;99243.00;129964;1093;114188;-62
2021/06/21 04:28:52;;;;;;;3.43;2.13;;;;;;;22.32;57.67;99242.46;130068;1091;22527;-63
2021/06/21 04:31:34;;;;;;;2.65;1.40;;;;;;;22.38;57.84;99252.17;130017;1092;113810;-64
2021/06/21 04:34:02;;;;;;;8.78;3.05;;;;;;;22.43;57.14;99241.68;130038;1093;22698;-66
2021/06/21 04:36:31;;;;;;;4.18;1.83;;;;;;;22.47;57.30;99245.39;130102;1092;22568;-63
2021/06/21 04:38:59;;;;;;;4.63;2.45;;;;;;;22.50;56.89;99238.35;129977;1093;113919;-63
2021/06/21 04:41:27;;;;;;;4.45;2.20;;;;;;;22.54;56.68;99244.81;130095;1093;22570;-63
2021/06/21 04:43:56;;;;;;;6.45;1.73;;;;;;;22.58;56.81;99242.98;129907;1091;114889;-63
2021/06/21 04:46:25;;;;;;;8.08;2.00;;;;;;;22.64;56.93;99235.25;130117;1091;22573;-63
2021/06/21 04:48:54;;;;;;;8.85;2.53;;;;;;;22.68;56.78;99236.97;129953;1093;114304;-63
2021/06/21 04:51:22;;;;;;;6.38;2.05;;;;;;;22.73;56.79;99231.20;130112;1093;22707;-63
2021/06/21 04:53:50;;;;;;;7.60;2.00;;;;;;;22.76;55.99;99238.04;130060;1092;23710;-63
2021/06/21 04:56:19;;;;;;;2.88;1.70;;;;;;;22.81;55.90;99235.86;129979;1092;114205;-64
2021/06/21 04:58:47;;;;;;;5.38;1.98;;;;;;;22.85;56.00;99234.02;130047;1093;22603;-63
2021/06/21 05:01:15;;;;;;;6.35;2.00;;;;;;;22.93;56.22;99228.70;129977;1093;113946;-63
2021/06/21 05:03:44;;;;;;;6.58;2.20;;;;;;;22.98;55.78;99223.72;130086;1093;22562;-62
2021/06/21 05:06:12;;;;;;;2.83;1.85;;;;;;;23.05;55.71;99223.14;130096;1092;22661;-63
2021/06/21 05:08:42;;;;;;;6.18;2.03;;;;;;;23.14;55.54;99229.38;129950;1093;113775;-63
2021/06/21 05:11:11;;;;;;;4.95;2.15;;;;;;;23.20;55.30;99223.25;130075;1093;22585;-63
2021/06/21 05:13:40;;;;;;;4.10;1.73;;;;;;;23.28;54.68;99232.61;129980;1093;113811;-63
2021/06/21 05:16:08;;;;;;;5.65;1.63;;;;;;;23.35;54.42;99227.29;130045;1093;22567;-63
2021/06/21 05:18:37;;;;;;;4.35;1.80;;;;;;;23.45;54.65;99224.02;130088;1093;22627;-63
2021/06/21 05:21:06;;;;;;;4.58;1.78;;;;;;;23.58;54.83;99225.64;129936;1093;113905;-63
2021/06/21 05:23:34;;;;;;;5.38;1.90;;;;;;;23.72;53.96;99221.66;130093;1092;23405;-63
2021/06/21 05:26:05;;;;;;;2.55;1.60;;;;;;;23.84;54.14;99218.83;129956;1093;113789;-64
2021/06/21 05:28:33;;;;;;;5.18;2.05;;;;;;;23.94;53.81;99223.91;130101;1093;22522;-66
2021/06/21 05:31:02;;;;;;;4.45;2.10;;;;;;;24.05;53.90;99218.64;129935;1092;114322;-67
2021/06/21 05:33:30;;;;;;;3.63;1.70;;;;;;;24.15;53.27;99218.13;130115;1093;22692;-63
2021/06/21 05:35:59;;;;;;;6.28;1.80;;;;;;;24.20;52.40;99218.69;130019;1093;22729;-63
2021/06/21 05:38:27;;;;;;;5.98;1.88;;;;;;;24.22;52.66;99223.91;130030;1093;113722;-64
2021/06/21 05:40:55;;;;;;;4.90;1.88;;;;;;;24.22;52.21;99233.06;130032;1093;22531;-63
2021/06/21 05:43:24;;;;;;;8.45;2.25;;;;;;;24.24;52.29;99238.28;129985;1093;114355;-63
2021/06/21 05:45:53;;;;;;;4.45;2.28;;;;;;;24.27;52.75;99234.80;130078;1092;22726;-63
2021/06/21 05:48:22;;;;;;;6.50;2.15;;;;;;;24.29;52.28;99238.84;130075;1093;22565;-64
2021/06/21 05:50:51;;;;;;;8.40;1.95;;;;;;;24.34;52.58;99232.22;129970;1093;113741;-63
2021/06/21 05:53:19;;;;;;;6.88;1.70;;;;;;;24.37;51.97;99233.48;130075;1093;22691;-63
2021/06/21 05:55:49;;;;;;;6.45;1.83;;;;;;;24.36;51.96;99221.53;129957;1093;113998;-64
2021/06/21 05:58:17;;;;;;;2.63;1.90;;;;;;;24.39;52.75;99228.34;130103;1093;22592;-64
2021/06/21 06:00:46;;;;;;;4.00;2.40;;;;;;;24.39;52.78;99219.98;129950;1093;113893;-63
2021/06/21 06:03:14;;;;;;;7.55;1.75;;;;;;;24.40;52.85;99219.63;130091;1093;22566;-63
2021/06/21 06:05:42;;;;;;;9.13;2.58;;;;;;;24.42;52.99;99216.49;130106;1093;22667;-64
2021/06/21 06:08:16;;;;;;;8.23;2.13;;;;;;;24.45;52.32;99221.36;129972;1092;113813;-63
2021/06/21 06:10:53;;;;;;;7.48;2.60;;;;;;;24.47;52.71;99219.84;130104;1093;22583;-62
2021/06/21 06:13:21;;;;;;;5.73;2.13;;;;;;;24.51;53.03;99215.17;129988;1091;113955;-63
2021/06/21 06:15:49;;;;;;;5.55;1.80;;;;;;;24.56;52.67;99211.30;130103;1092;22544;-65
2021/06/21 06:18:20;;;;;;;6.25;1.98;;;;;;;24.60;52.37;99209.42;130036;1092;22600;-63
2021/06/21 06:20:49;;;;;;;5.23;1.90;;;;;;;24.62;52.78;99207.09;129992;1091;113900;-61
2021/06/21 06:23:35;;;;;;;5.48;1.90;;;;;;;24.65;52.60;99201.61;130052;1092;22534;-63
2021/06/21 06:26:03;;;;;;;5.50;1.83;;;;;;;24.67;53.20;99198.47;128262;1093;113946;-58
2021/06/21 06:28:32;;;;;;;6.33;2.20;;;;;;;24.69;53.05;99196.11;129962;1092;23462;-58
2021/06/21 06:31:01;;;;;;;10.45;2.03;;;;;;;24.73;52.17;99193.42;129987;1091;113906;-57
2021/06/21 06:33:29;;;;;;;9.58;2.23;;;;;;;24.71;52.25;99193.77;130039;1092;23206;-57
2021/06/21 06:35:57;;;;;;;8.05;1.90;;;;;;;24.74;51.90;99190.27;130099;1092;23365;-58
2021/06/21 06:38:26;;;;;;;4.23;1.85;;;;;;;24.76;52.15;99193.52;129924;1093;114066;-58
2021/06/21 06:40:55;;;;;;;5.73;1.85;;;;;;;24.81;52.20;99192.45;130107;1093;23377;-58
2021/06/21 06:43:23;;;;;;;12.05;2.30;;;;;;;24.86;52.28;99187.38;129911;1092;113997;-58
2021/06/21 06:45:52;;;;;;;11.75;2.40;;;;;;;24.91;52.56;99184.33;130099;1092;22596;-58
2021/06/21 06:48:20;;;;;;;9.83;2.00;;;;;;;24.95;51.95;99179.69;130017;1092;22551;-58
2021/06/21 06:50:48;;;;;;;4.53;1.85;;;;;;;25.02;52.49;99173.46;129991;1093;113852;-58
2021/06/21 06:53:25;;;;;;;4.80;2.20;;;;;;;25.06;51.91;99176.34;130048;1092;22635;-64
2021/06/21 06:58:41;;;;;;;6.93;2.15;;;;;;;25.12;51.51;99167.31;130019;1093;23034;-68
2021/06/21 07:01:09;;;;;;;7.80;2.58;;;;;;;25.19;51.68;99166.69;129958;1093;114407;-69
2021/06/21 07:03:40;;;;;;;6.35;2.20;;;;;;;25.23;51.76;99165.60;130059;1093;23479;-68
2021/06/21 07:06:08;;;;;;;5.00;2.50;;;;;;;25.29;52.01;99168.89;130048;1093;22592;-68
2021/06/21 07:08:36;;;;;;;9.13;2.58;;;;;;;25.34;52.42;99171.41;129945;1093;113826;-68
2021/06/21 07:11:05;;;;;;;7.28;2.03;;;;;;;25.39;51.50;99165.55;130137;1092;22593;-68
2021/06/21 07:13:44;;;;;;;7.58;2.18;;;;;;;25.46;51.39;99160.11;129902;1092;114221;-69
2021/06/21 07:16:33;;;;;;;4.80;2.45;;;;;;;25.50;50.83;99161.01;130115;1093;23528;-68
2021/06/21 07:19:02;;;;;;;9.95;2.53;;;;;;;25.53;50.62;99160.28;129670;1092;113863;-68
2021/06/21 07:21:31;;;;;;;8.13;2.60;;;;;;;25.55;50.91;99159.89;130100;1092;22525;-68
2021/06/21 07:23:59;;;;;;;5.78;2.25;;;;;;;25.55;50.86;99165.47;130033;1093;23885;-69
2021/06/21 07:26:28;;;;;;;7.60;2.48;;;;;;;25.56;51.14;99158.71;128384;1093;113800;-69
2021/06/21 07:28:56;;;;;;;7.38;3.43;;;;;;;25.60;51.58;99160.41;127170;1092;22823;-68
2021/06/21 07:31:24;;;;;;;11.03;2.33;;;;;;;25.66;51.18;99158.98;129915;1092;113935;-68
2021/06/21 07:34:01;;;;;;;11.45;3.25;;;;;;;25.72;50.43;99165.06;130033;1092;22555;-69
2021/06/21 07:36:30;;;;;;;7.58;2.38;;;;;;;25.74;51.98;99162.72;130084;1091;22581;-68
2021/06/21 07:38:58;;;;;;;13.98;2.53;;;;;;;25.79;51.20;99158.83;129986;1093;113904;-69
2021/06/21 07:41:27;;;;;;;6.48;2.63;;;;;;;25.84;51.71;99158.52;130068;1092;22705;-69
2021/06/21 07:43:56;;;;;;;7.00;2.53;;;;;;;25.88;51.66;99156.61;129966;1090;114772;-69
2021/06/21 07:46:28;;;;;;;6.85;2.98;;;;;;;25.94;51.02;99160.73;130088;1093;22560;-68
2021/06/21 07:48:57;;;;;;;7.65;2.60;;;;;;;25.95;51.05;99167.94;130026;1093;113864;-69
2021/06/21 07:51:25;;;;;;;10.50;2.38;;;;;;;25.94;50.45;99160.73;130084;1091;22562;-68
2021/06/21 07:53:54;;;;;;;6.80;2.73;;;;;;;25.91;51.18;99162.27;130101;1093;23691;-68
2021/06/21 07:56:23;;;;;;;7.40;3.30;;;;;;;25.91;51.18;99158.67;129944;1093;114034;-69
2021/06/21 07:58:51;;;;;;;9.93;3.30;;;;;;;25.94;49.90;99157.94;130106;1093;22566;-69
2021/06/21 08:01:19;;;;;;;11.58;4.45;;;;;;;25.95;50.37;99154.78;130010;1093;114186;-69
2021/06/21 08:03:48;;;;;;;8.90;3.10;;;;;;;25.98;49.78;99151.23;130137;1092;22612;-68
2021/06/21 08:06:16;;;;;;;16.38;3.30;;;;;;;26.00;50.46;99162.03;130082;1092;22663;-63
2021/06/21 08:08:44;;;;;;;13.43;2.70;;;;;;;26.02;49.65;99156.89;130014;1092;114202;-62
2021/06/21 08:11:13;;;;;;;4.40;2.50;;;;;;;26.04;50.19;99168.50;130104;1093;22592;-63
2021/06/21 08:13:41;;;;;;;8.20;3.40;;;;;;;26.09;49.63;99165.42;130029;1092;114194;-63
2021/06/21 08:16:10;;;;;;;2.10;1.78;;;;;;;26.13;50.27;99163.48;130093;1093;23378;-63
2021/06/21 08:18:38;;;;;;;5.68;2.23;;;;;;;26.16;50.28;99165.53;130094;1093;22779;-63
2021/06/21 08:21:07;;;;;;;5.18;2.28;;;;;;;26.18;49.58;99171.56;130016;1093;113367;-63
2021/06/21 08:23:35;;;;;;;3.68;2.40;;;;;;;26.21;49.86;99158.84;130059;1092;22983;-62
2021/06/21 08:26:04;;;;;;;5.88;2.88;;;;;;;26.25;50.82;99152.16;129983;1093;113822;-62
2021/06/21 08:28:32;;;;;;;9.03;2.98;;;;;;;26.30;50.60;99156.64;129832;1093;22565;-63
2021/06/21 08:31:01;;;;;;;12.38;3.35;;;;;;;26.36;50.47;99152.38;130002;1093;114107;-64
2021/06/21 08:33:29;;;;;;;9.93;2.80;;;;;;;26.40;50.19;99147.66;130069;1093;23159;-64
2021/06/21 08:36:02;;;;;;;8.03;2.68;;;;;;;26.43;50.47;99148.88;130087;1093;22543;-68
2021/06/21 08:38:30;;;;;;;7.55;2.60;;;;;;;26.48;50.87;99145.78;129942;1093;114892;-68
2021/06/21 08:40:59;;;;;;;4.25;2.55;;;;;;;26.48;50.57;99154.16;130115;1093;22725;-67
2021/06/21 08:43:28;;;;;;;6.13;2.70;;;;;;;26.49;50.61;99159.38;129908;1093;113772;-67
2021/06/21 08:45:57;;;;;;;15.35;2.85;;;;;;;26.52;51.02;99149.45;130071;1092;22559;-68
2021/06/21 08:48:28;;;;;;;11.45;2.68;;;;;;;26.55;50.73;99155.08;129792;1091;23609;-67
2021/06/21 08:51:00;;;;;;;3.75;2.40;;;;;;;26.61;49.25;99158.38;129926;1093;114214;-67
2021/06/21 08:53:28;;;;;;;7.45;3.38;;;;;;;26.66;48.99;99166.46;130039;1092;23349;-68
2021/06/21 08:55:57;;;;;;;6.95;2.85;;;;;;;26.67;48.74;99165.28;129991;1091;113777;-68
2021/06/21 08:58:25;;;;;;;10.20;2.73;;;;;;;26.71;49.66;99160.53;130019;1093;22590;-67
2021/06/21 09:00:54;;;;;;;9.00;2.55;;;;;;;26.73;49.63;99160.97;129972;1093;114508;-68
2021/06/21 09:03:22;;;;;;;4.85;2.43;;;;;;;26.76;49.00;99155.45;130047;1092;22637;-68
2021/06/21 09:05:50;;;;;;;9.38;2.68;;;;;;;26.77;49.28;99156.25;130061;1092;22540;-59
2021/06/21 09:08:19;;;;;;;4.98;2.78;;;;;;;26.78;49.35;99160.66;129973;1092;114125;-59
2021/06/21 09:10:50;;;;;;;6.35;2.90;;;;;;;26.81;49.23;99162.72;130116;1093;22616;-59
2021/06/21 09:13:38;;;;;;;8.20;2.55;;;;;;;26.85;49.55;99163.56;129953;1092;114286;-59
2021/06/21 09:16:07;;;;;;;12.85;2.80;;;;;;;26.90;49.92;99166.05;130058;1093;23479;-59
2021/06/21 09:18:39;;;;;;;8.35;3.08;;;;;;;26.94;50.04;99157.75;130050;1093;22664;-59
2021/06/21 09:21:23;;;;;;;11.50;3.58;;;;;;;26.98;49.18;99156.60;129986;1091;113983;-60
2021/06/21 09:24:20;;;;;;;6.08;2.68;;;;;;;27.01;48.84;99158.66;130093;1093;22672;-59
2021/06/21 09:26:51;;;;;;;10.08;3.63;;;;;;;27.03;48.75;99153.50;129951;1092;114106;-59
2021/06/21 09:29:37;;;;;;;8.48;2.50;;;;;;;27.07;49.21;99154.36;130059;1093;22558;-60
2021/06/21 09:32:40;;;;;;;8.85;3.08;;;;;;;27.09;49.53;99154.80;130010;1092;113738;-59
2021/06/21 09:35:11;;;;;;;6.60;2.78;;;;;;;27.14;49.60;99164.02;130056;1093;22647;-65
2021/06/21 09:37:46;;;;;;;13.90;4.05;;;;;;;27.20;49.09;99170.92;129981;1093;114344;-65
2021/06/21 09:40:32;;;;;;;6.60;2.78;;;;;;;27.26;48.28;99163.83;130045;1093;23999;-65
2021/06/21 09:43:30;;;;;;;14.38;3.70;;;;;;;27.31;49.46;99163.48;130008;1093;113993;-65
2021/06/21 09:46:05;;;;;;;;;;;;;;;27.33;49.07;99167.52;130059;1093;22558;-65
2021/06/21 09:48:40;;;;;;;8.50;2.95;;;;;;;27.33;48.94;99172.30;130104;1092;21242;-65
2021/06/21 09:51:21;;;;;;;14.45;3.15;;;;;;;27.35;48.96;99181.13;129949;1092;113594;-65
2021/06/21 09:54:02;;;;;;;7.80;2.48;;;;;;;27.33;48.14;99175.10;130096;1093;22761;-65
2021/06/21 09:56:50;;;;;;;8.50;2.90;;;;;;;27.31;48.56;99183.06;129912;1092;114100;-65
2021/06/21 09:59:23;;;;;;;12.23;3.05;;;;;;;27.27;48.18;99185.02;130098;1091;23880;-65
2021/06/21 10:02:21;;;;;;;7.20;2.63;;;;;;;27.26;49.38;99183.41;129954;1093;113918;-65
2021/06/21 10:04:49;;;;;;;12.50;2.63;;;;;;;27.30;48.56;99187.05;130126;1091;22647;-65
2021/06/21 10:07:37;;;;;;;6.45;2.15;;;;;;;27.32;48.47;99188.28;129929;1093;114254;-65
2021/06/21 10:10:10;;;;;;;17.58;3.80;;;;;;;27.32;48.57;99188.28;130076;1093;22547;-65
2021/06/21 10:12:39;;;;;;;8.05;2.78;;;;;;;27.32;48.22;99195.87;130056;1093;22563;-66
2021/06/21 10:15:09;;;;;;;11.13;2.70;;;;;;;27.31;48.15;99192.27;129966;1093;113776;-64
2021/06/21 10:17:38;;;;;;;4.80;2.33;;;;;;;27.28;47.67;99186.61;126934;1093;24454;-61
2021/06/21 10:20:08;;;;;;;11.48;2.50;;;;;;;27.24;48.56;99191.37;126884;1093;114066;-58
2021/06/21 10:22:36;;;;;;;4.88;2.88;;;;;;;27.26;49.02;99194.59;130014;1092;22536;-61
2021/06/21 10:25:06;;;;;;;10.50;3.05;;;;;;;27.27;48.90;99180.20;129986;1092;113923;-59
2021/06/21 10:27:38;;;;;;;6.15;2.48;;;;;;;27.30;49.39;99179.45;130025;1093;23917;-59
2021/06/21 10:30:11;;;;;;;12.33;3.65;;;;;;;27.32;48.56;99187.47;130104;1093;22552;-60
2021/06/21 10:32:40;;;;;;;5.75;2.28;;;;;;;27.31;48.75;99185.86;129953;1091;114176;-61
2021/06/21 10:35:11;;;;;;;9.35;2.75;;;;;;;27.33;48.86;99194.69;130065;1092;22580;-60
2021/06/21 10:38:04;;;;;;;7.20;2.53;;;;;;;27.38;49.49;99197.98;129935;1092;113849;-60
2021/06/21 10:40:52;;;;;;;6.40;2.73;;;;;;;27.43;48.44;99199.62;130099;1092;22647;-61
2021/06/21 10:43:47;;;;;;;5.83;2.40;;;;;;;27.44;48.88;99192.84;129968;1093;113998;-60
2021/06/21 10:46:19;;;;;;;5.75;2.83;;;;;;;27.46;48.42;99187.67;128713;1093;28562;-65
2021/06/21 10:48:57;;;;;;;18.15;3.50;;;;;;;27.49;48.52;99186.11;126892;1092;114105;-66
2021/06/21 10:51:32;;;;;;;9.30;3.00;;;;;;;27.49;48.86;99189.72;126948;1091;22805;-65
2021/06/21 10:54:01;;;;;;;12.25;2.70;;;;;;;27.47;48.32;99189.29;127094;1092;22924;-62
2021/06/21 10:56:50;;;;;;;6.65;2.95;;;;;;;27.44;48.81;99184.45;127079;1092;113984;-62
2021/06/21 10:59:19;;;;;;;10.15;2.63;;;;;;;27.40;48.62;99178.82;126981;1093;24415;-61
2021/06/21 11:01:55;;;;;;;4.55;3.05;;;;;;;27.40;49.07;99186.41;125360;1091;114034;-62
2021/06/21 11:04:37;;;;;;;5.80;3.18;;;;;;;27.40;49.11;99186.41;130074;1093;23380;-62
2021/06/21 11:07:12;;;;;;;9.38;2.98;;;;;;;27.44;49.71;99196.45;129960;1093;113919;-62
2021/06/21 11:09:55;;;;;;;11.98;3.03;;;;;;;27.50;49.44;99204.52;130054;1092;22570;-63
2021/06/21 11:12:24;;;;;;;5.65;3.15;;;;;;;27.53;48.14;99204.58;130077;1093;22589;-63
2021/06/21 11:15:14;;;;;;;6.35;2.45;;;;;;;27.52;49.24;99197.37;129985;1092;113627;-63
2021/06/21 11:17:46;;;;;;;8.75;2.83;;;;;;;27.51;48.11;99192.14;126992;1093;22857;-61
2021/06/21 11:20:41;;;;;;;11.05;2.90;;;;;;;27.50;48.43;99194.14;127018;1093;113899;-62
2021/06/21 11:23:11;;;;;;;10.23;2.78;;;;;;;27.48;47.80;99188.11;127091;1093;26348;-61
2021/06/21 11:25:45;;;;;;;10.50;3.58;;;;;;;27.54;48.69;99200.59;129996;1092;114035;-63
2021/06/21 11:28:36;;;;;;;20.20;4.88;;;;;;;27.55;49.51;99199.41;130060;1093;22722;-62
2021/06/21 11:31:25;;;;;;;9.45;2.73;;;;;;;27.59;49.17;99207.86;129970;1092;114436;-63
2021/06/21 11:34:00;;;;;;;28.90;5.20;;;;;;;27.62;50.71;99199.52;130054;1093;22712;-62
2021/06/21 11:36:45;;;;;;;9.65;2.78;;;;;;;27.66;49.85;99205.17;130109;1093;22562;-62
2021/06/21 11:39:30;;;;;;;9.50;3.40;;;;;;;27.69;50.27;99198.83;129947;1093;113641;-62
2021/06/21 11:42:00;;;;;;;4.83;2.60;;;;;;;27.71;50.33;99200.03;130088;1091;22531;-62
2021/06/21 11:44:40;;;;;;;10.10;2.95;;;;;;;27.74;49.25;99198.47;129943;1092;113910;-62
2021/06/21 11:47:14;;;;;;;8.70;2.93;;;;;;;27.78;49.28;99193.73;130036;1092;23367;-61